PWSweather.com
Personal Weather Stations
Station Observations
KJ4AJP
Beautiful Downtown Gardner, Martin, TN 38237

Beautiful Downtown GardnerMartin, TN 38237

Lat: 36.358, Lon: -88.8994

Elevation: 384.3

Station Type: TP1080WC

http://weather.mambm.com/

High Low Average
Temperature 72.7°F22.6°C 41.5°F5.3°C 47.3°F8.5°C
Dew Point 68.3°F20.2°C 41.3°F5.2°C 46.6°F8.1°C
Winds 13.6 mph 21.9 kmh 0.7 mph 1.1 kmh 4.0 mph S6.4 kmh S
Wind Gusts 25.9 mph41.7 kmh 3.8 mph6.1 kmh 12.0 mph19.3 kmh
Humidity 99% 83% 98%
Pressure 30.40 in1029.5 mb 30.05 in1017.6 mb -
Precipitation 1.59 in40.4 mm - -
Hour Temp Dew Point Humidity Winds Wind Gusts Pressure Precip Precip Rate Daily Precip Total
12:00 AM 72.3°F22.4°C 67.9°F19.9°C 86% 8.3 mph S13.4 kmh S 24.4 mph39.3 kmh 30.06 in1017.9 mb 0.00 in0.0 mm 0.00 in0.0 mm 0.00 in0.0 mm
12:15 AM 72.5°F22.5°C 68.1°F20.1°C 86% 11.4 mph SE18.3 kmh SE 25.9 mph41.7 kmh 30.05 in1017.6 mb 0.00 in0.0 mm 0.00 in0.0 mm 0.00 in0.0 mm
12:30 AM 72.7°F22.6°C 68.3°F20.2°C 86% 9.8 mph S15.8 kmh S 21.3 mph34.3 kmh 30.05 in1017.6 mb 0.00 in0.0 mm 0.00 in0.0 mm 0.00 in0.0 mm
12:45 AM 72.5°F22.5°C 68.1°F20.1°C 86% 10.7 mph S17.2 kmh S 21.3 mph34.3 kmh 30.06 in1017.9 mb 0.00 in0.0 mm 0.00 in0.0 mm 0.00 in0.0 mm
01:00 AM 72.3°F22.4°C 68.3°F20.2°C 87% 13.6 mph S21.9 kmh S 25.1 mph40.4 kmh 30.06 in1017.9 mb 0.00 in0.0 mm 0.00 in0.0 mm 0.00 in0.0 mm
01:15 AM 72.3°F22.4°C 68.3°F20.2°C 87% 7.6 mph S12.2 kmh S 25.1 mph40.4 kmh 30.06 in1017.9 mb 0.00 in0.0 mm 0.00 in0.0 mm 0.00 in0.0 mm
01:30 AM 69.6°F20.9°C 64.3°F17.9°C 83% 3.1 mph NW5.0 kmh NW 10.7 mph17.2 kmh 30.10 in1019.3 mb 0.00 in0.0 mm 0.00 in0.0 mm 0.00 in0.0 mm
01:45 AM 64.6°F18.1°C 61.3°F16.3°C 89% 0.7 mph N1.1 kmh N 7.6 mph12.2 kmh 30.11 in1019.6 mb 0.13 in3.3 mm 0.52 in13.2 mm 0.13 in3.3 mm
02:00 AM 61.9°F16.6°C 60.2°F15.7°C 94% 5.4 mph N8.7 kmh N 10.7 mph17.2 kmh 30.10 in1019.3 mb 0.13 in3.3 mm 0.00 in0.0 mm 0.13 in3.3 mm
02:15 AM 60.4°F15.8°C 59.6°F15.3°C 97% 6.0 mph NNE9.7 kmh NNE 12.1 mph19.5 kmh 30.10 in1019.3 mb 0.14 in3.6 mm 0.04 in1.0 mm 0.14 in3.6 mm
02:30 AM 59.9°F15.5°C 59.6°F15.3°C 99% 4.5 mph NNE7.2 kmh NNE 10.7 mph17.2 kmh 30.09 in1019.0 mb 0.15 in3.8 mm 0.04 in1.0 mm 0.15 in3.8 mm
02:45 AM 59.5°F15.3°C 59.3°F15.2°C 99% 2.2 mph NE3.5 kmh NE 6.0 mph9.7 kmh 30.08 in1018.6 mb 0.02 in0.5 mm 0.00 in0.0 mm 0.15 in3.8 mm
03:15 AM 58.8°F14.9°C 58.6°F14.8°C 99% 4.5 mph NW7.2 kmh NW 10.7 mph17.2 kmh 30.16 in1021.3 mb 0.04 in1.0 mm 0.04 in1.0 mm 0.18 in4.6 mm
03:30 AM 57.6°F14.2°C 57.3°F14.1°C 99% 6.0 mph NNW9.7 kmh NNW 19.0 mph30.6 kmh 30.14 in1020.7 mb 0.15 in3.8 mm 0.44 in11.2 mm 0.31 in7.9 mm
03:45 AM 57.0°F13.9°C 56.8°F13.8°C 99% 3.8 mph N6.1 kmh N 15.2 mph24.5 kmh 30.15 in1021.0 mb 0.17 in4.3 mm 0.08 in2.0 mm 0.32 in8.1 mm
04:00 AM 56.3°F13.5°C 56.0°F13.3°C 99% 4.5 mph NNW7.2 kmh NNW 9.8 mph15.8 kmh 30.16 in1021.3 mb 0.19 in4.8 mm 0.03 in0.8 mm 0.34 in8.6 mm
04:15 AM 54.9°F12.7°C 54.6°F12.6°C 99% 2.2 mph NNW3.5 kmh NNW 13.6 mph21.9 kmh 30.18 in1022.0 mb 0.18 in4.6 mm 0.00 in0.0 mm 0.35 in8.9 mm
04:30 AM 53.2°F11.8°C 53.0°F11.7°C 99% 6.0 mph NNW9.7 kmh NNW 10.7 mph17.2 kmh 30.18 in1022.0 mb 0.06 in1.5 mm 0.00 in0.0 mm 0.37 in9.4 mm
04:45 AM 52.0°F11.1°C 51.7°F10.9°C 99% 4.5 mph N7.2 kmh N 12.1 mph19.5 kmh 30.18 in1022.0 mb 0.05 in1.3 mm 0.00 in0.0 mm 0.37 in9.4 mm
05:00 AM 51.1°F10.6°C 50.8°F10.4°C 99% 4.5 mph N7.2 kmh N 14.5 mph23.3 kmh 30.19 in1022.4 mb 0.02 in0.5 mm 0.00 in0.0 mm 0.37 in9.4 mm
05:15 AM 50.4°F10.2°C 50.1°F10.1°C 99% 1.6 mph N2.6 kmh N 6.9 mph11.1 kmh 30.22 in1023.4 mb 0.05 in1.3 mm 0.12 in3.0 mm 0.40 in10.2 mm
05:30 AM 49.5°F9.7°C 49.2°F9.6°C 99% 0.7 mph N1.1 kmh N 13.0 mph20.9 kmh 30.23 in1023.7 mb 0.06 in1.5 mm 0.04 in1.0 mm 0.43 in10.9 mm
05:45 AM 48.7°F9.3°C 48.5°F9.2°C 99% 4.5 mph N7.2 kmh N 9.2 mph14.8 kmh 30.22 in1023.4 mb 0.07 in1.8 mm 0.04 in1.0 mm 0.44 in11.2 mm
06:00 AM 47.5°F8.6°C 47.2°F8.4°C 99% 2.2 mph N3.5 kmh N 14.5 mph23.3 kmh 30.25 in1024.4 mb 0.07 in1.8 mm 0.00 in0.0 mm 0.44 in11.2 mm
06:15 AM 47.1°F8.4°C 46.9°F8.3°C 99% 2.2 mph NW3.5 kmh NW 5.4 mph8.7 kmh 30.26 in1024.7 mb 0.06 in1.5 mm 0.00 in0.0 mm 0.47 in11.9 mm
06:30 AM 46.6°F8.1°C 46.3°F7.9°C 99% 2.2 mph NNW3.5 kmh NNW 7.6 mph12.2 kmh 30.28 in1025.4 mb 0.07 in1.8 mm 0.04 in1.0 mm 0.50 in12.7 mm
06:45 AM 45.9°F7.7°C 45.6°F7.6°C 99% 2.2 mph N3.5 kmh N 6.0 mph9.7 kmh 30.30 in1026.1 mb 0.09 in2.3 mm 0.08 in2.0 mm 0.53 in13.5 mm
07:00 AM 45.3°F7.4°C 45.1°F7.3°C 99% 4.5 mph N7.2 kmh N 16.8 mph27.0 kmh 30.29 in1025.7 mb 0.11 in2.8 mm 0.03 in0.8 mm 0.54 in13.7 mm
07:15 AM 44.8°F7.1°C 44.5°F6.9°C 99% 3.1 mph N5.0 kmh N 12.1 mph19.5 kmh 30.32 in1026.8 mb 0.08 in2.0 mm 0.00 in0.0 mm 0.56 in14.2 mm
07:30 AM 44.2°F6.8°C 44.0°F6.7°C 99% 3.8 mph NNW6.1 kmh NNW 10.7 mph17.2 kmh 30.34 in1027.4 mb 0.06 in1.5 mm 0.00 in0.0 mm 0.56 in14.2 mm
07:45 AM 43.5°F6.4°C 43.3°F6.3°C 99% 3.8 mph NNW6.1 kmh NNW 15.9 mph25.6 kmh 30.34 in1027.4 mb 0.04 in1.0 mm 0.00 in0.0 mm 0.57 in14.5 mm
08:00 AM 43.0°F6.1°C 42.7°F5.9°C 99% 10.7 mph N17.2 kmh N 16.8 mph27.0 kmh 30.35 in1027.8 mb 0.04 in1.0 mm 0.00 in0.0 mm 0.58 in14.7 mm
08:15 AM 42.4°F5.8°C 42.2°F5.7°C 99% 3.1 mph N5.0 kmh N 16.8 mph27.0 kmh 30.36 in1028.1 mb 0.02 in0.5 mm 0.00 in0.0 mm 0.58 in14.7 mm
08:30 AM 42.3°F5.7°C 42.0°F5.6°C 99% 3.1 mph N5.0 kmh N 15.9 mph25.6 kmh 30.37 in1028.4 mb 0.02 in0.5 mm 0.00 in0.0 mm 0.58 in14.7 mm
08:45 AM 42.1°F5.6°C 41.8°F5.4°C 99% 6.9 mph N11.1 kmh N 15.9 mph25.6 kmh 30.37 in1028.4 mb 0.01 in0.3 mm 0.00 in0.0 mm 0.58 in14.7 mm
09:00 AM 42.3°F5.7°C 42.0°F5.6°C 99% 4.5 mph N7.2 kmh N 12.1 mph19.5 kmh 30.38 in1028.8 mb 0.01 in0.3 mm 0.00 in0.0 mm 0.59 in15.0 mm
09:15 AM 42.1°F5.6°C 41.8°F5.4°C 99% 5.4 mph NNW8.7 kmh NNW 10.7 mph17.2 kmh 30.39 in1029.1 mb 0.01 in0.3 mm 0.00 in0.0 mm 0.59 in15.0 mm
09:30 AM 41.7°F5.4°C 41.5°F5.3°C 99% 4.5 mph N7.2 kmh N 14.5 mph23.3 kmh 30.40 in1029.5 mb 0.01 in0.3 mm 0.00 in0.0 mm 0.59 in15.0 mm
09:45 AM 41.5°F5.3°C 41.3°F5.2°C 99% 8.3 mph N13.4 kmh N 16.8 mph27.0 kmh 30.39 in1029.1 mb 0.02 in0.5 mm 0.04 in1.0 mm 0.60 in15.2 mm
10:00 AM 41.9°F5.5°C 41.6°F5.3°C 99% 4.5 mph N7.2 kmh N 10.7 mph17.2 kmh 30.40 in1029.5 mb 0.01 in0.3 mm 0.00 in0.0 mm 0.60 in15.2 mm
10:15 AM 41.7°F5.4°C 41.5°F5.3°C 99% 6.9 mph N11.1 kmh N 11.4 mph18.3 kmh 30.39 in1029.1 mb 0.01 in0.3 mm 0.00 in0.0 mm 0.60 in15.2 mm
10:30 AM 41.9°F5.5°C 41.6°F5.3°C 99% 6.0 mph N9.7 kmh N 12.1 mph19.5 kmh 30.38 in1028.8 mb 0.01 in0.3 mm 0.00 in0.0 mm 0.60 in15.2 mm
10:45 AM 42.1°F5.6°C 41.8°F5.4°C 99% 4.5 mph N7.2 kmh N 13.6 mph21.9 kmh 30.38 in1028.8 mb 0.00 in0.0 mm 0.00 in0.0 mm 0.60 in15.2 mm
11:00 AM 42.3°F5.7°C 42.0°F5.6°C 99% 4.5 mph NNE7.2 kmh NNE 12.1 mph19.5 kmh 30.38 in1028.8 mb 0.00 in0.0 mm 0.00 in0.0 mm 0.60 in15.2 mm
11:15 AM 42.4°F5.8°C 42.2°F5.7°C 99% 2.2 mph NNE3.5 kmh NNE 9.8 mph15.8 kmh 30.36 in1028.1 mb 0.00 in0.0 mm 0.00 in0.0 mm 0.60 in15.2 mm
11:30 AM 43.0°F6.1°C 42.7°F5.9°C 99% 3.8 mph N6.1 kmh N 12.1 mph19.5 kmh 30.35 in1027.8 mb 0.00 in0.0 mm 0.00 in0.0 mm 0.60 in15.2 mm
11:45 AM 43.0°F6.1°C 42.7°F5.9°C 99% 6.0 mph NE9.7 kmh NE 13.0 mph20.9 kmh 30.36 in1028.1 mb 0.00 in0.0 mm 0.00 in0.0 mm 0.60 in15.2 mm
12:00 PM 43.0°F6.1°C 42.7°F5.9°C 99% 2.2 mph N3.5 kmh N 13.0 mph20.9 kmh 30.37 in1028.4 mb 0.01 in0.3 mm 0.01 in0.3 mm 0.61 in15.5 mm
12:15 PM 43.2°F6.2°C 42.9°F6.1°C 99% 6.9 mph N11.1 kmh N 11.4 mph18.3 kmh 30.38 in1028.8 mb 0.02 in0.5 mm 0.04 in1.0 mm 0.63 in16.0 mm
12:30 PM 43.2°F6.2°C 42.9°F6.1°C 99% 3.1 mph NNE5.0 kmh NNE 7.6 mph12.2 kmh 30.37 in1028.4 mb 0.04 in1.0 mm 0.08 in2.0 mm 0.64 in16.3 mm
12:45 PM 43.0°F6.1°C 42.7°F5.9°C 99% 5.4 mph NNE8.7 kmh NNE 9.8 mph15.8 kmh 30.35 in1027.8 mb 0.06 in1.5 mm 0.08 in2.0 mm 0.66 in16.8 mm
01:00 PM 42.8°F6.0°C 42.5°F5.8°C 99% 4.5 mph N7.2 kmh N 9.8 mph15.8 kmh 30.37 in1028.4 mb 0.06 in1.5 mm 0.00 in0.0 mm 0.67 in17.0 mm
01:15 PM 42.6°F5.9°C 42.4°F5.8°C 99% 4.5 mph N7.2 kmh N 8.3 mph13.4 kmh 30.35 in1027.8 mb 0.08 in2.0 mm 0.08 in2.0 mm 0.71 in18.0 mm
01:30 PM 42.8°F6.0°C 42.5°F5.8°C 99% 3.1 mph NNE5.0 kmh NNE 9.2 mph14.8 kmh 30.35 in1027.8 mb 0.08 in2.0 mm 0.00 in0.0 mm 0.72 in18.3 mm
01:45 PM 42.6°F5.9°C 42.4°F5.8°C 99% 2.2 mph N3.5 kmh N 8.3 mph13.4 kmh 30.37 in1028.4 mb 0.06 in1.5 mm 0.00 in0.0 mm 0.72 in18.3 mm
02:00 PM 42.6°F5.9°C 42.4°F5.8°C 99% 1.6 mph N2.6 kmh N 8.3 mph13.4 kmh 30.35 in1027.8 mb 0.08 in2.0 mm 0.03 in0.8 mm 0.76 in19.3 mm
02:15 PM 42.8°F6.0°C 42.5°F5.8°C 99% 2.2 mph NNE3.5 kmh NNE 6.0 mph9.7 kmh 30.34 in1027.4 mb 0.06 in1.5 mm 0.00 in0.0 mm 0.77 in19.6 mm
02:30 PM 43.2°F6.2°C 42.9°F6.1°C 99% 1.6 mph N2.6 kmh N 9.8 mph15.8 kmh 30.37 in1028.4 mb 0.07 in1.8 mm 0.04 in1.0 mm 0.79 in20.1 mm
02:45 PM 43.2°F6.2°C 42.9°F6.1°C 99% 5.4 mph N8.7 kmh N 11.4 mph18.3 kmh 30.35 in1027.8 mb 0.08 in2.0 mm 0.04 in1.0 mm 0.80 in20.3 mm
03:00 PM 43.2°F6.2°C 42.9°F6.1°C 99% 7.6 mph N12.2 kmh N 12.1 mph19.5 kmh 30.36 in1028.1 mb 0.06 in1.5 mm 0.00 in0.0 mm 0.81 in20.6 mm
03:15 PM 43.2°F6.2°C 42.9°F6.1°C 99% 3.1 mph N5.0 kmh N 10.7 mph17.2 kmh 30.38 in1028.8 mb 0.06 in1.5 mm 0.00 in0.0 mm 0.83 in21.1 mm
03:30 PM 43.3°F6.3°C 43.1°F6.2°C 99% 6.0 mph N9.7 kmh N 11.4 mph18.3 kmh 30.38 in1028.8 mb 0.06 in1.5 mm 0.00 in0.0 mm 0.85 in21.6 mm
03:45 PM 43.3°F6.3°C 43.1°F6.2°C 99% 8.3 mph N13.4 kmh N 13.0 mph20.9 kmh 30.37 in1028.4 mb 0.05 in1.3 mm 0.00 in0.0 mm 0.85 in21.6 mm
04:00 PM 43.2°F6.2°C 42.9°F6.1°C 99% 3.1 mph N5.0 kmh N 15.2 mph24.5 kmh 30.37 in1028.4 mb 0.04 in1.0 mm 0.00 in0.0 mm 0.85 in21.6 mm
04:15 PM 43.2°F6.2°C 42.9°F6.1°C 99% 4.5 mph N7.2 kmh N 12.1 mph19.5 kmh 30.38 in1028.8 mb 0.02 in0.5 mm 0.00 in0.0 mm 0.85 in21.6 mm
04:30 PM 43.0°F6.1°C 42.7°F5.9°C 99% 2.2 mph N3.5 kmh N 13.6 mph21.9 kmh 30.40 in1029.5 mb 0.02 in0.5 mm 0.00 in0.0 mm 0.87 in22.1 mm
04:45 PM 43.0°F6.1°C 42.7°F5.9°C 99% 4.5 mph N7.2 kmh N 9.8 mph15.8 kmh 30.40 in1029.5 mb 0.04 in1.0 mm 0.08 in2.0 mm 0.89 in22.6 mm
05:00 PM 42.8°F6.0°C 42.5°F5.8°C 99% 3.8 mph N6.1 kmh N 12.1 mph19.5 kmh 30.39 in1029.1 mb 0.06 in1.5 mm 0.03 in0.8 mm 0.91 in23.1 mm
05:15 PM 42.8°F6.0°C 42.5°F5.8°C 99% 3.8 mph NNE6.1 kmh NNE 8.3 mph13.4 kmh 30.37 in1028.4 mb 0.06 in1.5 mm 0.00 in0.0 mm 0.91 in23.1 mm
05:30 PM 42.6°F5.9°C 42.4°F5.8°C 99% 1.6 mph N2.6 kmh N 9.8 mph15.8 kmh 30.37 in1028.4 mb 0.05 in1.3 mm 0.00 in0.0 mm 0.92 in23.4 mm
05:45 PM 42.4°F5.8°C 42.2°F5.7°C 99% 3.1 mph NNE5.0 kmh NNE 9.2 mph14.8 kmh 30.35 in1027.8 mb 0.05 in1.3 mm 0.00 in0.0 mm 0.93 in23.6 mm
06:00 PM 42.4°F5.8°C 42.2°F5.7°C 99% 3.1 mph NE5.0 kmh NE 8.3 mph13.4 kmh 30.34 in1027.4 mb 0.02 in0.5 mm 0.00 in0.0 mm 0.93 in23.6 mm
06:15 PM 42.4°F5.8°C 42.2°F5.7°C 99% 1.6 mph NE2.6 kmh NE 10.7 mph17.2 kmh 30.34 in1027.4 mb 0.04 in1.0 mm 0.08 in2.0 mm 0.94 in23.9 mm
06:30 PM 42.4°F5.8°C 42.2°F5.7°C 99% 3.8 mph ENE6.1 kmh ENE 8.3 mph13.4 kmh 30.34 in1027.4 mb 0.05 in1.3 mm 0.04 in1.0 mm 0.97 in24.6 mm
06:45 PM 42.4°F5.8°C 42.2°F5.7°C 99% 3.1 mph NE5.0 kmh NE 9.8 mph15.8 kmh 30.34 in1027.4 mb 0.06 in1.5 mm 0.04 in1.0 mm 0.99 in25.1 mm
07:00 PM 42.4°F5.8°C 42.2°F5.7°C 99% 3.8 mph NE6.1 kmh NE 9.2 mph14.8 kmh 30.33 in1027.1 mb 0.09 in2.3 mm 0.04 in1.0 mm 1.03 in26.2 mm
07:15 PM 42.4°F5.8°C 42.2°F5.7°C 99% 2.2 mph NE3.5 kmh NE 6.0 mph9.7 kmh 30.33 in1027.1 mb 0.12 in3.0 mm 0.12 in3.0 mm 1.06 in26.9 mm
07:30 PM 42.6°F5.9°C 42.4°F5.8°C 99% 1.6 mph NE2.6 kmh NE 10.7 mph17.2 kmh 30.32 in1026.8 mb 0.12 in3.0 mm 0.00 in0.0 mm 1.09 in27.7 mm
07:45 PM 42.6°F5.9°C 42.4°F5.8°C 99% 3.1 mph NE5.0 kmh NE 9.2 mph14.8 kmh 30.30 in1026.1 mb 0.12 in3.0 mm 0.00 in0.0 mm 1.11 in28.2 mm
08:00 PM 42.8°F6.0°C 42.5°F5.8°C 99% 2.2 mph N3.5 kmh N 6.9 mph11.1 kmh 30.30 in1026.1 mb 0.11 in2.8 mm 0.00 in0.0 mm 1.13 in28.7 mm
08:15 PM 42.8°F6.0°C 42.5°F5.8°C 99% 3.8 mph NNE6.1 kmh NNE 7.6 mph12.2 kmh 30.30 in1026.1 mb 0.08 in2.0 mm 0.00 in0.0 mm 1.15 in29.2 mm
08:30 PM 42.8°F6.0°C 42.5°F5.8°C 99% 5.4 mph N8.7 kmh N 9.8 mph15.8 kmh 30.30 in1026.1 mb 0.08 in2.0 mm 0.00 in0.0 mm 1.17 in29.7 mm
08:45 PM 42.8°F6.0°C 42.5°F5.8°C 99% 1.6 mph N2.6 kmh N 7.6 mph12.2 kmh 30.33 in1027.1 mb 0.08 in2.0 mm 0.00 in0.0 mm 1.19 in30.2 mm
09:00 PM 43.0°F6.1°C 42.7°F5.9°C 99% 3.1 mph NNW5.0 kmh NNW 9.2 mph14.8 kmh 30.34 in1027.4 mb 0.11 in2.8 mm 0.04 in1.0 mm 1.24 in31.5 mm
09:15 PM 42.8°F6.0°C 42.5°F5.8°C 99% 3.1 mph N5.0 kmh N 6.0 mph9.7 kmh 30.34 in1027.4 mb 0.14 in3.6 mm 0.12 in3.0 mm 1.29 in32.8 mm
09:30 PM 42.6°F5.9°C 42.4°F5.8°C 99% 3.8 mph N6.1 kmh N 9.2 mph14.8 kmh 30.33 in1027.1 mb 0.14 in3.6 mm 0.00 in0.0 mm 1.31 in33.3 mm
09:45 PM 42.4°F5.8°C 42.2°F5.7°C 99% 5.4 mph N8.7 kmh N 9.8 mph15.8 kmh 30.30 in1026.1 mb 0.14 in3.6 mm 0.00 in0.0 mm 1.33 in33.8 mm
10:00 PM 42.3°F5.7°C 42.0°F5.6°C 99% 3.8 mph N6.1 kmh N 13.6 mph21.9 kmh 30.30 in1026.1 mb 0.12 in3.0 mm 0.00 in0.0 mm 1.36 in34.5 mm
10:15 PM 42.1°F5.6°C 41.8°F5.4°C 99% 6.9 mph NNE11.1 kmh NNE 13.0 mph20.9 kmh 30.29 in1025.7 mb 0.08 in2.0 mm 0.00 in0.0 mm 1.37 in34.8 mm
10:30 PM 41.9°F5.5°C 41.6°F5.3°C 99% 6.9 mph N11.1 kmh N 11.4 mph18.3 kmh 30.29 in1025.7 mb 0.07 in1.8 mm 0.00 in0.0 mm 1.38 in35.1 mm
10:45 PM 41.9°F5.5°C 41.6°F5.3°C 99% 3.8 mph NNE6.1 kmh NNE 10.7 mph17.2 kmh 30.29 in1025.7 mb 0.07 in1.8 mm 0.00 in0.0 mm 1.41 in35.8 mm
11:00 PM 41.9°F5.5°C 41.6°F5.3°C 99% 4.5 mph N7.2 kmh N 9.2 mph14.8 kmh 30.29 in1025.7 mb 0.08 in2.0 mm 0.01 in0.3 mm 1.44 in36.6 mm
11:15 PM 41.9°F5.5°C 41.6°F5.3°C 99% 4.5 mph NNE7.2 kmh NNE 11.4 mph18.3 kmh 30.28 in1025.4 mb 0.11 in2.8 mm 0.12 in3.0 mm 1.48 in37.6 mm
11:30 PM 41.9°F5.5°C 41.6°F5.3°C 99% 1.6 mph NW2.6 kmh NW 3.8 mph6.1 kmh 30.30 in1026.1 mb 0.18 in4.6 mm 0.28 in7.1 mm 1.56 in39.6 mm
11:45 PM 41.9°F5.5°C 41.6°F5.3°C 99% 3.1 mph NNW5.0 kmh NNW 9.2 mph14.8 kmh 30.30 in1026.1 mb 0.19 in4.8 mm 0.04 in1.0 mm 1.59 in40.4 mm